Date,TemperatureHighF,TemperatureAvgF,TemperatureLowF,DewpointHighF,DewpointAvgF,DewpointLowF,HumidityHigh,HumidityAvg,HumidityLow,PressureMaxIn,PressureMinIn,WindSpeedMaxMPH,WindSpeedAvgMPH,GustSpeedMaxMPH,PrecipitationSumIn
2013-1-1,37.4,35.5,28.9,31.1,28.4,18.6,82,75,64,30.00,29.85,9,4,11,0.00
2013-1-2,30.6,27.1,24.4,18.6,16.6,14.6,73,64,55,30.19,29.97,12,4,16,0.00
2013-1-3,32.5,26.5,19.2,21.9,17.7,15.0,85,69,56,30.20,30.09,10,3,15,0.00
2013-1-4,37.0,33.1,29.9,24.9,23.2,21.7,73,67,59,30.12,30.00,16,9,23,0.00
2013-1-5,37.3,31.5,26.5,25.1,22.6,20.5,84,70,58,30.33,30.05,12,4,15,0.00
2013-1-6,44.5,36.4,26.5,34.5,29.4,24.7,97,77,57,30.18,29.97,10,3,15,0.00
2013-1-7,41.6,36.7,24.7,32.5,28.9,22.3,91,74,59,30.38,30.08,10,3,14,0.00
2013-1-8,44.7,32.6,22.8,34.1,27.7,20.8,93,83,65,30.38,30.33,7,2,11,0.00
2013-1-9,43.7,34.4,24.5,39.0,31.8,23.1,96,90,78,30.36,30.16,6,2,8,0.01
2013-1-10,46.3,39.8,33.5,32.4,29.7,28.3,92,68,53,30.53,30.30,8,3,11,0.00
2013-1-11,44.3,39.6,33.0,41.2,35.0,27.6,98,84,69,30.48,30.06,8,3,9,0.40
2013-1-12,51.8,43.6,39.9,48.8,42.9,39.6,100,98,87,30.14,30.06,4,1,5,0.00
2013-1-13,47.1,44.4,39.2,47.1,44.4,38.8,100,100,99,30.10,29.93,6,2,6,0.01
2013-1-14,51.7,47.9,40.0,50.8,43.4,34.3,100,86,59,30.26,29.86,10,3,14,0.19
2013-1-15,40.0,36.1,32.7,38.6,31.5,27.7,97,83,72,30.32,30.16,8,3,8,0.24
2013-1-16,35.6,33.6,32.4,34.8,32.6,30.6,98,96,93,30.15,29.78,7,2,10,0.48
2013-1-17,39.3,37.4,35.5,35.1,31.1,28.7,97,78,68,30.09,29.92,12,4,15,0.00
2013-1-18,35.8,29.2,25.0,28.6,17.4,8.6,82,62,42,30.45,29.98,16,6,23,0.00
2013-1-19,50.1,36.6,25.9,31.8,24.2,-99.9,79,64,46,30.36,29.88,14,-11,19,0.00
2013-1-20,52.0,39.2,27.4,34.1,23.7,13.5,76,56,27,30.05,29.73,21,8,29,0.00
2013-1-21,31.7,26.6,22.2,23.6,14.7,10.9,85,61,54,30.08,29.83,13,5,15,0.00
2013-1-22,22.4,15.7,10.9,14.4,-0.3,-4.3,74,49,40,30.25,29.88,17,11,23,0.00
2013-1-23,17.7,13.1,8.9,5.1,1.1,-1.2,70,59,47,30.28,30.14,13,5,19,0.00
2013-1-24,23.5,17.8,13.0,8.1,4.2,0.0,74,56,37,30.45,30.09,15,6,21,0.00
2013-1-25,19.0,14.7,7.8,14.0,5.9,0.7,92,69,50,30.46,30.05,8,2,11,0.00
2013-1-26,25.5,17.3,9.3,14.5,11.6,7.2,93,79,57,30.40,30.06,11,2,12,0.00
2013-1-27,32.8,19.8,6.1,18.5,12.7,3.6,89,75,51,30.56,30.39,7,1,9,0.00
2013-1-28,33.7,30.1,21.9,33.4,28.2,17.0,99,93,80,30.48,30.02,9,3,14,0.17
2013-1-29,57.0,43.8,33.8,51.6,42.0,33.5,99,94,82,30.10,29.97,8,2,8,0.04
2013-1-30,63.8,52.5,40.0,60.2,51.7,39.4,100,97,88,29.96,29.25,20,6,23,1.46
2013-1-31,57.2,40.0,27.7,57.2,29.2,12.0,100,66,47,29.81,29.06,26,15,36,1.00
2013-2-1,28.0,24.6,18.6,19.0,10.7,5.7,74,56,44,30.29,29.78,19,10,26,0.00
2013-2-2,23.6,19.6,13.9,21.7,12.2,5.8,95,74,57,30.31,30.00,14,5,17,0.00
2013-2-3,29.8,24.9,17.6,25.8,21.3,13.8,96,87,64,30.00,29.78,16,2,20,0.04
2013-2-4,29.3,24.4,18.9,22.9,14.0,10.6,84,64,54,30.03,29.88,13,6,20,0.00
2013-2-5,32.4,29.4,26.6,29.1,26.0,22.6,93,87,81,29.92,29.84,4,2,6,0.00
2013-2-6,37.4,31.4,24.3,29.3,25.7,20.4,98,81,60,30.27,29.90,14,4,21,0.01
2013-2-11,44.2,41.7,39.4,44.2,38.9,-99.9,100,96,64,29.86,-32.77,15,-16,19,0.00
2013-2-12,42.6,38.8,28.3,31.3,27.3,24.1,85,64,53,29.96,29.75,16,7,28,0.00
2013-2-13,41.8,32.9,23.9,32.1,27.3,21.6,97,81,58,29.94,29.65,7,2,12,0.02
2013-2-14,43.7,35.9,32.1,32.6,30.6,27.3,98,82,56,29.97,29.71,7,2,12,0.10
2013-2-15,52.2,40.1,30.3,37.8,32.4,28.2,97,76,49,29.99,29.88,14,4,24,0.09
2013-2-16,33.5,31.3,28.0,32.1,26.4,14.6,99,83,58,29.96,29.78,10,3,15,0.03
2013-2-17,28.5,24.9,20.0,19.1,10.2,2.7,80,54,39,30.10,29.76,21,11,34,0.00
2013-2-18,35.3,25.9,18.1,18.4,11.3,6.3,65,54,35,30.31,30.11,14,7,29,0.00
2013-2-19,40.3,35.6,29.7,38.7,29.1,17.4,97,78,55,30.14,29.67,16,6,26,0.18
2013-2-20,34.0,27.0,22.1,23.1,14.2,9.2,74,58,48,30.06,29.77,18,12,32,0.00
2013-2-21,33.6,27.2,21.8,18.7,15.1,11.6,69,60,51,30.30,30.03,15,9,26,0.00
2013-2-22,33.9,28.7,22.5,29.5,21.3,15.8,86,74,65,30.35,30.20,8,3,14,0.00
2013-2-23,43.7,38.0,32.6,42.9,37.2,29.4,99,97,86,30.21,29.78,6,3,10,0.05
2013-2-24,41.1,37.1,31.3,38.9,30.4,21.2,99,78,58,30.03,29.75,18,7,30,0.00
2013-2-25,45.6,35.9,29.4,28.9,25.0,21.0,82,65,48,30.19,30.03,7,4,15,0.00
2013-2-26,42.5,35.1,26.0,35.3,29.6,22.8,95,81,64,30.21,29.69,20,8,34,0.17
2013-2-27,49.3,42.0,36.4,42.8,36.2,-99.9,98,84,68,29.67,29.48,20,-7,32,0.09
2013-2-28,43.8,39.7,34.0,36.7,32.6,27.9,91,76,55,29.65,29.55,13,5,20,0.00
2013-3-1,41.1,38.0,33.8,31.7,29.4,24.6,85,71,58,29.81,29.63,11,6,19,0.00
2013-3-2,36.6,33.1,30.6,25.1,23.0,21.8,74,66,57,29.82,29.73,12,6,18,0.00
2013-3-3,34.5,30.8,27.3,23.5,20.2,16.5,74,65,56,29.82,29.72,13,8,25,0.00
2013-3-4,36.2,31.2,27.6,22.8,19.9,16.5,69,63,56,29.97,29.81,15,11,27,0.00
2013-3-5,45.0,36.1,29.5,29.1,25.3,21.3,74,65,51,30.03,29.88,8,4,19,0.00
2013-3-6,39.4,37.2,34.8,35.4,31.8,27.2,94,81,67,29.95,29.72,22,13,40,0.22
2013-3-7,45.2,39.0,35.0,27.9,26.1,23.8,71,60,48,30.08,29.95,13,8,25,0.00
2013-3-8,44.0,37.0,29.8,29.4,25.3,21.4,89,63,55,30.25,30.06,16,10,32,0.00
2013-3-9,59.9,44.5,31.6,27.0,22.6,18.0,67,45,20,30.29,30.20,7,3,14,0.00
2013-3-10,57.6,44.7,30.9,32.8,24.8,-99.9,74,48,30,30.30,30.19,13,-7,22,0.00
2013-3-11,55.0,45.6,37.1,47.8,40.7,32.5,95,84,60,30.22,29.98,12,6,21,0.00
2013-3-12,52.0,46.0,41.6,50.0,39.1,31.8,93,77,66,29.88,29.68,13,9,23,1.31
2013-3-13,45.3,38.8,31.8,35.0,28.7,19.1,87,68,48,29.96,29.81,19,7,32,0.01
2013-3-14,38.9,33.4,28.7,22.6,17.4,14.1,76,53,37,30.00,29.92,19,11,33,0.01
2013-3-15,51.4,38.0,24.3,34.3,23.0,13.9,68,55,43,30.01,29.70,18,6,27,0.00
2013-3-16,46.7,35.6,30.9,33.4,29.5,24.1,95,80,58,29.90,29.71,10,4,17,0.00
2013-3-17,37.4,32.8,30.1,30.3,25.1,20.2,94,74,52,30.26,29.89,8,2,16,0.08
2013-3-18,35.0,31.5,28.5,32.4,23.0,14.1,97,72,49,30.32,29.86,12,6,19,0.09
2013-3-19,50.8,39.3,33.5,38.7,30.8,18.8,98,75,36,29.88,29.66,20,8,32,0.19
2013-3-20,45.4,37.6,31.2,24.3,20.0,17.4,69,50,34,29.90,29.74,18,9,31,0.19
2013-3-21,36.4,31.3,26.9,26.5,16.7,10.4,80,55,38,29.80,29.67,13,7,22,0.00
2013-3-22,32.8,27.5,25.3,25.2,19.5,15.9,84,72,62,29.85,29.77,13,6,25,0.00
2013-3-26,48.9,43.0,36.9,34.7,31.9,26.0,84,66,42,29.90,29.75,12,6,21,0.03
2013-3-27,47.5,41.0,35.5,32.5,29.5,26.2,80,64,44,30.02,29.89,15,7,24,0.03
2013-3-28,46.6,40.8,34.5,32.0,29.1,26.9,79,64,47,30.15,30.00,11,5,16,0.00
2013-3-29,51.3,44.9,37.7,32.7,29.5,26.4,74,55,41,30.17,30.07,11,5,18,0.00
2013-3-30,56.3,43.9,29.1,34.4,28.7,25.2,88,58,30,30.17,30.06,11,3,13,0.00
2013-3-31,52.4,44.7,34.2,46.2,37.0,26.4,98,76,49,30.08,29.68,17,5,18,0.03
2013-4-1,57.2,45.3,37.1,46.5,33.9,12.5,99,69,31,29.92,29.66,19,8,26,0.01
2013-4-2,42.2,35.3,30.1,18.7,15.5,12.4,57,45,31,30.11,29.92,15,7,26,0.01
2013-4-3,42.9,34.9,25.7,19.7,15.0,9.3,65,45,27,30.31,30.10,16,6,20,0.00
2013-4-4,50.0,37.6,25.1,23.9,18.8,11.5,68,48,31,30.39,30.04,12,4,17,0.00
2013-4-5,60.2,48.1,36.9,35.6,25.9,16.6,88,47,20,30.03,29.75,14,7,22,0.00
2013-4-6,51.3,42.2,33.4,23.6,19.2,15.1,57,40,26,30.28,30.00,10,4,13,0.00
2013-4-7,61.8,50.5,39.3,45.0,36.4,23.6,81,59,45,30.24,29.93,19,10,26,0.00
2013-4-8,75.6,62.2,45.2,52.8,47.2,41.2,87,61,42,30.03,29.89,13,4,17,0.00
2013-4-9,81.0,69.3,53.5,56.0,52.7,48.2,86,58,32,29.98,29.83,14,6,20,0.00
2013-4-10,85.7,71.5,56.0,64.0,57.8,51.4,99,65,41,29.88,29.68,19,6,22,0.29
2013-4-11,70.1,60.6,50.3,63.5,57.3,45.6,100,89,75,29.86,29.74,18,7,22,0.01
2013-4-12,50.3,45.3,43.3,45.6,44.1,42.5,99,96,84,29.85,29.62,19,10,29,0.49
2013-4-13,59.0,49.8,40.8,44.3,38.4,33.9,98,68,45,29.94,29.75,15,5,17,0.49
2013-4-14,61.8,49.7,38.8,39.8,34.3,25.4,88,58,35,30.11,29.93,15,5,18,0.00
2013-4-15,61.2,52.9,47.0,46.7,40.8,32.0,78,64,52,30.27,30.10,11,6,14,0.00
2013-4-16,69.0,58.5,50.2,57.9,51.8,45.3,85,79,66,30.27,30.07,17,8,23,0.01
2013-4-17,70.3,60.4,54.0,57.1,48.2,38.9,98,68,34,30.21,30.05,11,3,14,0.01
2013-4-18,61.8,58.1,55.1,59.2,50.4,37.7,94,77,47,30.22,29.98,9,6,14,0.11
2013-4-19,73.3,63.7,49.5,65.7,60.5,47.8,99,90,76,29.98,29.52,24,11,41,0.83
2013-4-20,54.1,48.8,43.2,46.3,33.5,25.3,89,57,37,30.31,29.71,16,8,21,0.88
2013-4-21,52.6,43.2,34.4,35.3,25.2,20.4,76,50,34,30.56,30.31,9,4,14,0.00
2013-4-22,52.8,43.1,34.7,35.5,32.1,-99.9,87,68,47,30.57,30.41,14,1,22,0.00
2013-4-23,56.0,46.9,41.5,44.0,39.4,34.8,86,76,61,30.41,30.09,10,5,17,0.00
2013-4-24,69.7,54.0,37.7,58.7,48.9,36.7,98,84,63,30.09,29.74,17,6,30,0.05
2013-4-25,60.0,50.7,42.1,46.6,33.4,28.8,75,53,32,30.25,29.92,19,7,37,0.05
2013-4-26,61.3,51.0,40.0,38.2,33.0,24.7,83,54,26,30.41,30.25,9,3,16,0.00
2013-4-27,67.1,54.4,38.5,39.9,34.9,30.3,77,51,29,30.40,30.23,8,3,13,0.00
2013-4-28,67.5,56.2,42.6,46.9,40.5,34.7,89,58,34,30.25,30.12,15,5,26,0.02
2013-4-29,56.4,54.2,50.7,55.7,50.9,38.8,98,89,58,30.14,30.05,9,5,16,0.32
2013-4-30,67.3,57.6,51.6,53.2,51.1,46.0,98,81,47,30.20,30.10,12,6,18,0.32
2013-5-1,68.8,61.2,47.7,43.6,35.6,29.0,65,40,25,30.41,30.33,11,6,20,0.00
2013-5-2,70.6,57.7,41.5,47.1,43.2,39.2,93,62,35,30.41,30.27,10,3,18,0.00
2013-5-3,65.6,55.7,46.5,45.2,40.8,35.2,86,60,33,30.36,30.27,12,5,20,0.00
2013-5-4,68.6,55.5,40.3,47.5,41.4,37.9,92,63,36,30.32,30.14,10,4,22,0.00
2013-5-5,65.5,53.3,41.3,43.3,40.8,38.5,91,65,39,30.23,30.11,10,4,17,0.00
2013-5-6,65.7,54.6,41.9,54.8,48.5,39.4,96,81,67,30.19,30.06,10,5,20,0.00
2013-5-7,70.3,62.0,53.0,61.4,57.2,50.8,99,85,65,30.08,29.97,14,8,25,0.18
2013-5-8,72.2,62.2,57.8,61.8,57.7,51.8,98,86,54,29.99,29.86,11,4,19,0.08
2013-5-9,68.4,60.5,53.1,59.3,56.2,52.6,99,86,70,29.94,29.87,10,3,15,0.09
2013-5-10,80.4,66.0,50.8,63.3,57.5,50.5,100,78,41,29.97,29.83,11,3,17,0.55
2013-5-11,72.7,64.2,60.1,64.5,61.8,56.6,99,92,71,29.87,29.65,11,5,20,0.44
2013-5-12,60.5,55.9,48.4,56.9,39.5,26.4,88,57,30,29.95,29.68,16,8,28,0.44
2013-5-13,49.3,44.9,38.7,34.9,31.4,26.8,81,60,44,30.05,29.95,11,4,19,0.00
2013-7-7,89.6,77.9,68.8,75.4,71.4,67.8,97,82,59,30.02,29.91,16,5,33,0.07
2013-7-8,83.7,75.7,68.6,71.5,68.9,64.0,97,81,56,30.03,29.97,11,3,27,0.05
2013-7-9,83.5,75.6,69.4,77.2,71.5,69.1,99,88,71,30.03,29.91,9,2,18,0.15
2013-7-10,85.9,78.4,71.4,76.0,73.0,70.8,99,84,67,29.92,29.77,11,5,19,0.11
2013-7-11,83.9,76.4,70.6,71.0,66.6,61.3,93,73,56,29.89,29.78,5,2,11,0.00
2013-7-12,72.4,70.6,68.5,70.3,66.8,61.6,99,88,74,30.00,29.89,10,5,19,1.23
2013-7-13,84.2,76.6,69.0,75.2,72.2,68.7,99,87,69,30.24,30.01,8,3,18,0.05
2013-7-14,89.0,80.1,71.7,75.2,73.1,70.8,99,81,57,30.29,30.20,8,3,18,0.00
2013-7-15,92.5,81.1,70.5,76.7,73.7,69.6,98,81,52,30.24,30.11,6,2,18,0.00
2013-7-16,92.1,85.2,72.7,74.6,71.0,67.5,95,65,45,30.19,30.10,8,3,16,0.00
2013-7-17,92.7,82.5,70.7,75.1,71.3,68.3,93,71,46,30.16,30.03,7,2,12,0.00
2013-7-18,95.0,84.7,73.8,79.7,75.0,71.7,94,75,49,30.05,29.92,7,2,12,0.00
2013-7-19,94.6,83.5,75.9,79.0,75.1,69.7,96,77,55,29.95,29.77,12,4,19,0.00
2013-7-20,88.8,81.8,73.2,75.0,71.8,68.9,90,73,59,29.82,29.71,15,6,25,0.00
2013-7-21,87.0,79.5,72.2,73.6,70.7,68.3,89,75,56,29.89,29.80,5,1,10,0.00
2013-7-22,85.4,76.6,72.0,75.8,72.6,70.3,98,88,70,29.88,29.71,11,3,15,1.32
2013-7-23,84.1,76.3,70.4,74.3,71.1,68.7,100,85,61,29.72,29.55,10,4,14,1.57
2013-7-24,78.3,72.0,64.0,68.8,64.0,53.2,97,77,52,29.91,29.61,9,4,14,0.00
2013-7-25,73.3,64.9,56.8,61.9,56.6,51.0,83,75,66,30.00,29.90,8,4,14,0.00
2013-7-26,73.2,66.7,62.1,62.0,60.7,59.4,92,82,65,30.03,29.99,5,2,13,0.00
2013-7-30,79.1,72.9,62.0,63.0,59.9,57.3,91,66,49,30.11,30.09,7,3,13,0.00
2013-7-31,80.3,70.3,58.2,67.2,62.5,56.8,96,78,57,30.12,29.97,10,3,13,0.00
2013-8-1,72.0,70.9,69.7,66.3,66.1,65.9,88,85,82,29.97,29.89,7,5,13,0.00
2013-8-4,76.3,67.9,58.5,60.3,57.4,54.8,99,71,48,30.00,29.85,10,4,20,0.01
2013-8-5,75.1,69.3,55.2,61.7,54.5,50.6,95,61,44,30.06,29.98,7,3,14,0.00
2013-8-6,74.0,66.3,57.0,64.6,59.9,53.9,94,81,63,30.06,30.00,11,4,20,0.00
2013-8-7,76.0,70.1,66.1,71.2,67.5,64.2,99,91,84,30.05,29.97,9,4,18,0.15
2013-8-8,85.0,75.4,69.3,75.4,72.0,68.4,99,90,69,29.99,29.87,13,5,22,0.12
2013-8-9,83.0,77.6,71.2,77.1,74.1,68.4,97,89,75,29.93,29.77,15,6,28,0.41
2013-8-10,82.2,74.4,62.7,72.5,66.7,61.8,97,79,55,30.03,29.86,9,3,13,0.41
2013-8-11,82.8,72.1,62.2,68.3,63.5,59.6,97,76,57,30.08,29.96,7,3,12,0.00
2013-9-13,71.9,66.6,57.6,56.1,52.0,49.3,80,60,47,29.87,29.69,14,7,15,0.00
2013-9-14,60.4,55.2,46.5,51.4,47.5,44.9,94,76,61,30.13,29.87,12,4,0,0.00
2013-9-15,71.8,57.8,42.4,55.8,50.2,41.6,98,78,51,30.20,30.05,12,3,0,0.00
2013-9-16,68.3,61.7,56.1,59.3,55.3,49.0,97,81,59,30.21,30.00,8,3,0,0.10
2013-9-17,64.4,53.8,43.6,48.3,43.4,39.6,93,70,47,30.40,30.22,12,4,0,0.10
2013-9-18,68.9,53.4,41.9,52.2,44.0,-99.9,97,76,46,30.32,30.16,10,-21,0,0.00
2013-9-19,75.3,59.2,43.7,57.4,51.3,42.6,97,78,49,30.17,30.04,11,2,0,0.00
2013-9-20,77.0,64.6,51.0,62.3,56.8,50.1,98,78,54,30.06,29.92,10,3,0,0.00
2013-9-21,74.0,64.8,56.1,64.5,60.1,53.8,98,85,64,29.94,29.64,16,5,0,0.00
2013-9-22,66.0,60.3,54.5,60.6,51.7,44.9,99,75,52,29.91,29.65,11,4,0,0.00
2013-9-23,63.7,55.5,48.8,47.6,44.3,40.9,86,66,52,30.04,29.91,9,4,0,0.00
2013-9-24,70.9,56.1,42.5,51.0,46.4,40.1,94,72,45,30.07,29.89,7,2,0,0.00
2013-9-25,72.5,56.8,43.1,54.2,47.3,41.5,96,74,37,29.95,29.84,4,1,0,0.00
2013-9-26,74.0,59.8,48.2,57.9,52.7,46.8,96,79,49,30.04,29.90,6,1,0,0.00
2013-9-27,70.1,61.9,54.2,57.2,54.7,51.3,94,79,54,30.22,30.04,7,3,0,0.00
2013-9-28,72.3,60.0,52.3,55.8,49.7,-99.9,95,75,47,30.28,30.19,7,-20,0,0.00
2013-9-29,70.5,58.8,46.0,59.3,51.7,45.1,98,80,52,30.19,30.03,7,2,0,0.00
2013-9-30,73.4,59.5,48.2,58.9,52.8,47.3,98,81,49,30.05,29.94,6,1,0,0.00
2013-10-1,77.7,62.7,49.9,62.5,56.3,49.1,97,82,53,30.02,29.90,8,2,0,0.00
2013-10-2,83.1,67.7,53.1,64.7,59.9,52.6,99,79,50,30.01,29.92,10,3,0,0.00
2013-10-3,81.2,69.6,56.9,65.7,61.7,56.1,98,78,50,30.08,29.99,7,2,0,0.00
2013-10-4,84.0,71.2,60.0,69.4,64.9,59.2,98,82,56,30.04,29.94,8,2,0,0.00
2013-10-5,85.2,72.1,64.3,72.2,64.5,-99.9,100,82,56,30.04,29.95,7,-15,0,0.00
2013-10-6,81.9,72.6,65.2,70.5,67.6,64.2,98,85,66,30.00,29.89,10,4,0,0.00
2013-10-7,73.5,65.1,53.7,70.3,61.6,46.7,97,89,69,29.98,29.69,24,8,0,0.00
2013-10-8,65.5,54.9,44.5,51.4,46.8,43.7,98,76,48,30.27,29.99,11,2,0,0.00
2013-10-9,58.6,53.5,46.6,48.6,46.4,42.8,91,77,60,30.33,30.22,11,4,0,0.00
2013-10-10,56.6,50.1,51.2,55.6,39.7,-99.9,99,84,76,30.22,29.97,16,-72,0,0.00
2013-10-11,63.3,58.6,54.6,60.6,57.5,53.8,98,96,88,30.01,29.92,13,7,0,0.00
2013-10-12,70.3,63.9,58.8,59.3,52.5,43.6,89,68,43,30.17,29.99,16,8,0,0.00
2013-10-13,67.1,60.4,52.6,55.6,51.8,48.1,88,74,57,30.32,30.16,19,9,0,0.00
2013-10-14,68.7,56.6,46.1,54.9,49.8,45.0,98,80,49,30.32,30.19,4,1,0,0.00
2013-10-15,72.4,58.2,46.4,56.8,50.4,45.4,98,78,48,30.21,30.07,5,1,0,0.00
2013-10-16,65.9,59.8,51.7,60.1,54.7,47.0,94,83,71,30.06,29.87,7,2,0,0.00
2013-10-17,72.2,65.3,61.3,64.0,61.7,56.7,97,89,73,29.86,29.65,14,4,0,0.00
2013-10-18,61.7,55.3,43.8,55.5,45.0,41.3,91,70,49,29.97,29.73,12,5,0,0.00
2013-10-19,61.2,51.2,39.7,53.6,46.2,38.4,97,84,60,29.97,29.73,12,3,0,0.00
2013-10-20,60.2,50.5,41.1,51.0,40.5,37.5,97,70,43,30.05,29.78,12,5,0,0.00
2013-10-21,64.7,50.5,37.2,47.7,40.7,35.6,96,72,40,30.12,29.92,13,4,0,0.00
2013-10-22,59.7,50.6,39.9,51.2,43.0,32.9,97,77,44,29.92,29.75,12,2,0,0.00
2013-10-23,51.9,43.7,38.0,38.2,35.1,30.7,87,73,45,29.80,29.62,10,2,0,0.00
2013-10-24,47.7,41.5,34.6,36.1,31.8,28.2,88,70,50,30.05,29.80,16,5,0,0.00
2013-10-25,50.9,40.5,29.9,36.6,32.1,27.1,92,73,53,30.25,30.05,11,3,0,0.00
2013-10-26,53.8,42.1,27.9,36.7,30.8,25.9,94,67,41,30.24,29.88,19,6,0,0.00
2013-10-27,54.3,45.5,37.4,37.3,31.3,-99.9,78,60,46,30.11,29.88,11,-11,0,0.00
2013-10-28,59.7,44.7,30.5,39.0,34.6,28.4,93,71,42,30.27,30.11,7,1,0,0.00
2013-10-29,59.7,49.2,40.4,43.0,38.4,35.3,87,67,48,30.37,30.27,6,2,0,0.00
2013-10-30,59.8,50.8,42.5,53.8,47.9,40.3,97,90,79,30.30,30.12,6,1,0,0.00
2013-10-31,65.0,57.6,47.9,60.5,52.9,-99.9,98,89,81,30.17,29.73,13,-16,0,0.00
2013-11-1,70.9,62.4,51.7,63.8,53.2,-99.9,99,77,46,29.73,29.48,20,-6,0,0.00
2013-11-2,63.6,55.0,47.3,51.4,45.4,40.4,91,71,52,29.79,29.59,10,2,0,0.00
2013-11-3,50.3,43.8,32.6,43.6,31.4,21.4,89,63,39,30.44,29.79,16,6,0,0.00
2013-11-4,45.0,35.1,28.0,25.4,19.8,-99.9,73,56,35,30.62,30.45,8,-8,0,0.00
2013-11-5,56.0,47.6,34.9,44.7,38.6,26.1,85,71,59,30.60,30.43,8,3,0,0.00
2013-11-6,62.4,54.9,48.8,51.1,48.3,44.5,87,79,65,30.43,30.01,13,4,0,0.00
2013-11-7,57.1,53.5,42.4,56.0,49.0,28.0,96,85,57,30.00,29.80,18,6,0,0.00
2013-11-8,46.6,41.0,32.9,33.3,28.8,25.8,77,62,49,30.25,29.97,20,6,0,0.00
2013-11-9,49.9,38.3,26.8,34.4,29.4,24.5,92,72,46,30.29,29.97,11,3,0,0.00
2013-11-10,54.5,43.7,30.9,39.6,32.2,28.6,91,66,42,30.11,29.89,17,6,0,0.00
2013-11-11,51.4,47.6,38.4,37.8,33.2,29.1,69,58,48,30.22,29.95,11,6,0,0.00
2013-11-12,49.5,37.2,28.4,37.9,22.5,13.9,78,55,43,30.32,29.92,14,6,0,0.00
2013-11-13,38.5,30.5,27.2,21.9,15.0,-99.9,73,56,43,30.42,30.30,15,-20,0,0.00
2013-11-14,52.4,37.1,25.9,24.5,19.5,14.8,80,54,23,30.30,30.17,12,3,0,0.00
2013-11-15,54.6,41.3,28.3,32.3,27.5,22.2,80,60,36,30.23,30.14,5,0,0,0.00
2013-11-16,41.7,41.3,41.0,39.2,37.7,34.0,92,87,74,30.25,30.21,3,0,0,0.00
2013-11-18,61.9,56.5,46.7,40.0,31.9,26.1,48,39,32,29.85,29.63,18,11,30,0.00
2013-11-19,46.4,41.1,34.3,31.0,25.8,21.8,62,54,47,30.34,29.85,16,8,17,0.00
2013-11-20,45.0,35.6,25.6,25.0,18.8,12.9,82,52,28,30.55,30.33,10,2,11,0.00
2013-11-21,48.5,39.6,27.8,39.9,28.3,14.6,78,64,49,30.57,30.35,5,2,6,0.00
2013-11-22,51.8,48.6,46.4,48.4,45.4,40.4,97,89,78,30.35,29.94,9,2,12,0.00
2013-11-23,52.2,39.8,26.8,46.5,27.0,8.0,81,61,44,30.11,29.95,21,9,26,0.00
2013-11-24,27.8,23.4,21.0,12.4,0.0,-99.9,67,40,30,30.43,30.10,19,-24,31,0.00
2013-11-25,31.7,25.5,18.4,18.2,10.2,-99.9,73,57,45,30.51,30.30,11,-16,13,0.00
2013-11-26,44.0,33.3,30.4,43.5,26.3,14.9,98,77,52,30.31,29.59,18,-4,18,0.00
2013-11-27,47.9,36.3,28.8,47.4,30.0,-99.9,99,85,60,29.88,29.43,19,-18,24,0.00
2013-11-28,33.1,28.7,27.0,21.2,15.8,-99.9,73,62,52,30.44,29.88,17,-14,19,0.00
2013-11-29,37.1,29.0,21.5,25.8,20.4,17.4,91,71,51,30.71,30.44,8,2,11,0.00
2013-11-30,36.1,27.5,18.2,26.5,20.7,14.5,87,76,63,30.71,30.35,9,2,9,0.00
2013-12-1,41.3,33.4,23.7,32.5,27.9,22.2,95,81,64,30.34,29.99,5,1,6,0.00
2013-12-2,46.2,39.1,34.6,34.8,32.3,29.5,87,77,61,29.99,29.84,3,0,6,0.00
2013-12-3,50.3,40.3,32.5,38.2,34.3,30.4,92,80,60,29.98,29.85,7,-6,8,0.00
2013-12-4,54.3,44.2,32.3,46.9,39.2,30.2,94,83,68,30.08,29.96,7,2,8,0.00
2013-12-5,57.5,52.8,48.9,57.5,52.3,46.8,100,98,89,30.05,29.88,9,2,10,0.00
2013-12-6,59.3,44.8,34.5,59.3,41.6,-99.9,100,94,89,30.14,29.83,9,-17,12,0.00
2013-12-7,37.6,33.6,28.6,33.3,28.3,22.0,95,81,67,30.51,30.08,11,4,14,0.00
2013-12-8,28.5,26.0,24.7,26.6,21.0,16.2,97,82,66,30.56,30.30,9,4,12,0.00
2013-12-9,35.1,32.2,27.4,34.1,31.5,26.7,99,97,96,30.29,29.98,8,3,9,0.00
2013-12-10,31.9,28.0,21.2,31.7,21.8,-99.9,100,87,66,30.15,29.92,16,-32,16,0.00
2013-12-11,31.5,21.8,10.2,22.6,15.8,8.3,94,79,56,30.35,30.15,13,2,16,0.00
2013-12-12,26.8,22.5,16.5,21.3,10.6,4.3,87,61,47,30.38,30.17,12,5,14,0.00
2013-12-13,34.6,22.1,9.6,19.7,10.3,-99.9,83,66,49,30.31,30.15,12,-25,16,0.00
2013-12-14,30.7,27.4,24.3,27.3,23.3,19.9,97,85,66,30.36,29.73,19,8,20,0.00
2013-12-15,38.9,30.8,26.3,34.0,24.4,-99.9,97,83,66,29.86,29.58,20,-16,26,0.00
2013-12-16,30.9,24.1,17.2,23.8,12.2,8.7,79,61,46,30.19,29.86,22,6,22,0.00
2013-12-17,25.7,22.5,17.3,23.7,19.0,13.3,95,87,63,30.17,29.93,5,2,8,0.00
2013-12-18,35.3,25.4,14.3,25.3,19.6,12.9,96,80,57,30.18,29.96,12,3,18,0.00
2013-12-19,43.6,29.7,16.5,29.4,23.4,14.3,93,79,55,30.17,30.03,5,1,7,0.00
2013-12-20,49.2,40.8,31.7,35.4,32.0,28.3,88,72,54,30.08,29.94,6,1,7,0.00
2013-12-21,60.0,48.6,38.1,55.7,42.5,-99.9,94,83,72,29.97,29.84,11,-13,11,0.00
2013-12-22,64.5,61.2,57.0,61.9,58.9,55.6,96,92,85,29.93,29.75,15,8,21,0.00
2013-12-23,57.5,50.2,36.5,56.7,46.6,27.6,100,88,69,30.16,29.86,14,4,15,0.00
2013-12-24,36.2,31.2,23.1,27.7,21.0,10.8,90,66,53,30.39,30.13,19,6,19,0.00
2013-12-25,26.5,22.1,17.9,16.0,6.5,-99.9,71,58,50,30.53,30.38,10,-42,11,0.00
2013-12-26,35.8,26.8,20.0,27.9,22.1,15.9,92,82,67,30.36,30.18,8,2,9,0.00
2013-12-27,42.9,28.3,14.5,27.8,21.4,12.1,94,77,48,30.36,30.26,7,1,7,0.00
2013-12-28,54.6,37.9,21.7,32.6,26.5,19.0,90,67,39,30.27,30.06,11,3,14,0.00
2013-12-29,40.9,39.0,35.9,39.9,35.2,28.4,98,87,68,30.06,29.48,13,3,13,0.00
2013-12-30,42.4,34.1,24.7,38.6,24.6,-99.9,96,73,58,30.15,29.73,12,-17,16,0.00
2013-12-31,34.6,26.6,20.2,25.4,16.8,12.1,78,66,54,30.29,30.04,17,6,21,0.00
2014-1-1,35.2,26.8,18.1,24.0,18.2,-99.9,83,73,62,30.38,30.14,10,-20,10,0.00
2014-1-2,29.7,26.0,17.3,25.8,22.3,15.9,95,86,73,30.14,29.65,13,7,17,0.00